createdAt,value
2018-11-05T07:30:59.234Z,8.38
2018-11-05T07:33:28.962Z,8.23
2018-11-05T07:35:59.883Z,8.30
2018-11-05T07:38:28.998Z,7.50
2018-11-05T07:40:58.765Z,9.35
2018-11-05T07:43:28.133Z,7.37
2018-11-05T07:45:57.264Z,13.65
2018-11-05T07:48:26.506Z,8.60
2018-11-05T07:50:56.506Z,8.98
2018-11-05T07:53:27.824Z,7.25
2018-11-05T07:55:57.641Z,14.98
2018-11-05T07:58:26.963Z,9.90
2018-11-05T08:00:57.601Z,10.98
2018-11-05T08:03:28.204Z,10.38
2018-11-05T08:05:58.070Z,16.10
2018-11-05T08:08:28.514Z,7.95
2018-11-05T08:10:57.561Z,10.88
2018-11-05T08:13:26.806Z,13.18
2018-11-05T08:15:55.980Z,9.93
2018-11-05T08:18:25.070Z,14.25
2018-11-05T08:20:54.290Z,8.98
2018-11-05T08:23:25.171Z,12.60
2018-11-05T08:25:55.170Z,10.48
2018-11-05T08:28:24.256Z,7.97
2018-11-05T08:30:54.142Z,11.43
2018-11-05T08:33:24.506Z,8.25
2018-11-05T08:35:53.706Z,7.80
2018-11-05T08:38:22.805Z,7.92
2018-11-05T08:40:52.050Z,12.73
2018-11-05T08:43:21.710Z,8.00
2018-11-05T08:45:50.981Z,6.92
2018-11-05T08:48:20.529Z,10.30
2018-11-05T08:50:50.431Z,11.53
2018-11-05T08:53:21.067Z,5.90
2018-11-05T08:55:50.975Z,8.90
2018-11-05T08:58:20.606Z,8.33
2018-11-05T09:01:20.833Z,11.88
2018-11-05T09:03:51.265Z,9.83
2018-11-05T09:06:20.375Z,8.20
2018-11-05T09:08:53.299Z,7.03
2018-11-05T09:11:22.776Z,10.95
2018-11-05T09:13:51.582Z,8.60
2018-11-05T09:16:21.385Z,9.50
2018-11-05T09:18:51.769Z,7.25
2018-11-05T09:21:21.618Z,7.10
2018-11-05T09:23:51.945Z,8.35
2018-11-05T09:26:21.221Z,9.18
2018-11-05T09:28:51.161Z,8.35
2018-11-05T09:31:20.943Z,8.58
2018-11-05T09:33:50.603Z,9.93
2018-11-05T09:36:20.006Z,9.03
2018-11-05T09:38:50.353Z,7.25
2018-11-05T09:41:19.638Z,11.90
2018-11-05T09:43:49.242Z,8.98
2018-11-05T09:46:18.973Z,11.55
2018-11-05T09:48:49.162Z,8.50
2018-11-05T09:51:18.304Z,8.48
2018-11-05T09:53:48.429Z,10.05
2018-11-05T09:56:17.559Z,8.30
2018-11-05T09:58:46.673Z,7.40
2018-11-05T10:01:16.597Z,8.63
2018-11-05T10:03:51.908Z,10.78
2018-11-05T10:06:21.410Z,8.05
2018-11-05T10:08:51.496Z,8.90
2018-11-05T10:11:20.956Z,7.92
2018-11-05T10:13:50.051Z,6.83
2018-11-05T10:16:19.375Z,8.60
2018-11-05T10:18:49.598Z,9.08
2018-11-05T10:21:18.778Z,6.67
2018-11-05T10:23:48.334Z,7.65
2018-11-05T10:26:18.341Z,7.70
2018-11-05T10:28:47.616Z,9.55
2018-11-05T10:31:24.271Z,7.55
2018-11-05T10:33:54.928Z,6.92
2018-11-05T10:36:24.630Z,7.05
2018-11-05T10:38:53.698Z,8.43
2018-11-05T10:41:22.877Z,7.70
2018-11-05T10:43:51.959Z,7.53
2018-11-05T10:46:21.797Z,6.65
2018-11-05T10:48:50.925Z,7.55
2018-11-05T10:51:20.119Z,7.05
2018-11-05T10:53:49.994Z,8.10
2018-11-05T10:56:19.799Z,9.33
2018-11-05T10:58:49.002Z,8.13
2018-11-05T11:01:22.366Z,7.50
2018-11-05T11:03:59.906Z,9.08
2018-11-05T11:06:29.534Z,6.47
2018-11-05T11:08:58.944Z,8.45
2018-11-05T11:11:28.268Z,8.03
2018-11-05T11:13:58.118Z,6.37
2018-11-05T11:16:29.151Z,7.90
2018-11-05T11:18:58.286Z,6.87
2018-11-05T11:21:27.598Z,7.15
2018-11-05T11:23:57.440Z,6.95
2018-11-05T11:26:26.625Z,6.95
2018-11-05T11:28:56.632Z,9.15
2018-11-05T11:31:26.091Z,7.10
2018-11-05T11:33:56.026Z,7.55
2018-11-05T11:36:26.181Z,11.03
2018-11-05T11:38:55.451Z,8.65
2018-11-05T11:41:24.571Z,7.80
2018-11-05T11:44:02.466Z,7.80
2018-11-05T11:46:32.709Z,7.35
2018-11-05T11:49:02.411Z,7.97
2018-11-05T11:51:31.972Z,6.58
2018-11-05T11:54:01.756Z,7.03
2018-11-05T11:56:30.911Z,7.50
2018-11-05T11:59:00.854Z,7.17
2018-11-05T12:01:34.994Z,6.05
2018-11-05T12:04:05.585Z,6.55
2018-11-05T12:06:34.721Z,8.18
2018-11-05T12:09:05.863Z,7.53
2018-11-05T12:11:35.588Z,6.95
2018-11-05T12:14:07.570Z,6.65
2018-11-05T12:16:36.562Z,8.38
2018-11-05T12:19:06.782Z,8.03
2018-11-05T12:21:36.006Z,8.20
2018-11-05T12:24:06.385Z,8.88
2018-11-05T12:26:35.617Z,8.15
2018-11-05T12:29:04.874Z,7.60
2018-11-05T12:31:34.790Z,6.42
2018-11-05T12:34:06.733Z,9.00
2018-11-05T12:36:35.916Z,7.35
2018-11-05T12:39:08.570Z,7.83
2018-11-05T12:41:38.390Z,10.05
2018-11-05T12:44:08.898Z,8.45
2018-11-05T12:46:38.799Z,7.33
2018-11-05T12:49:07.930Z,8.45
2018-11-05T12:51:37.700Z,7.62
2018-11-05T12:54:08.286Z,7.03
2018-11-05T12:56:37.373Z,7.80
2018-11-05T12:59:07.022Z,7.60
2018-11-05T13:01:36.331Z,6.92
2018-11-05T13:04:06.192Z,7.83
2018-11-05T13:06:35.466Z,7.05
2018-11-05T13:09:08.273Z,7.55
2018-11-05T13:11:39.501Z,7.03
2018-11-05T13:14:08.619Z,6.87
2018-11-05T13:16:38.338Z,7.87
2018-11-05T13:19:07.455Z,7.53
2018-11-05T13:21:36.537Z,8.40
2018-11-05T13:24:06.707Z,7.80
2018-11-05T13:26:36.286Z,7.40
2018-11-05T13:29:05.750Z,7.75
2018-11-05T13:31:35.481Z,7.17
2018-11-05T13:34:05.432Z,7.90
2018-11-05T13:36:34.976Z,7.65
2018-11-05T13:39:05.478Z,7.90
2018-11-05T13:41:34.584Z,8.60
2018-11-05T13:44:04.109Z,8.05
2018-11-05T13:46:33.988Z,7.00
2018-11-05T13:49:03.162Z,7.33
2018-11-05T13:51:32.091Z,7.47
2018-11-05T13:54:01.979Z,7.70
2018-11-05T13:56:31.022Z,7.90
2018-11-05T13:59:00.236Z,7.05
2018-11-05T14:01:30.386Z,7.03
2018-11-05T14:04:00.774Z,6.40
2018-11-05T14:06:29.921Z,6.97
2018-11-05T14:08:59.830Z,7.72
2018-11-05T14:11:30.189Z,7.05
2018-11-05T14:13:59.389Z,7.40
2018-11-05T14:16:29.953Z,7.60
2018-11-05T14:18:59.711Z,7.72
2018-11-05T14:21:28.792Z,7.22
2018-11-05T14:23:58.967Z,7.20
2018-11-05T14:26:28.054Z,7.90
2018-11-05T14:28:57.840Z,6.58
2018-11-05T14:31:27.095Z,7.42
2018-11-05T14:33:57.299Z,7.15
2018-11-05T14:36:26.744Z,8.15
2018-11-05T14:38:55.793Z,7.45
2018-11-05T14:41:25.018Z,7.12
2018-11-05T14:43:54.723Z,7.12
2018-11-05T14:46:23.768Z,8.75
2018-11-05T14:48:53.107Z,7.75
2018-11-05T14:51:22.307Z,7.33
2018-11-05T14:53:52.474Z,7.30
2018-11-05T14:56:21.678Z,7.42
2018-11-05T14:58:51.402Z,7.00
2018-11-05T15:01:20.531Z,7.90
2018-11-05T15:03:49.622Z,7.47
2018-11-05T15:06:19.008Z,7.87
2018-11-05T15:08:49.218Z,8.45
2018-11-05T15:11:19.008Z,7.25
2018-11-05T15:13:48.159Z,8.95
2018-11-05T15:16:17.275Z,8.40
2018-11-05T15:18:46.876Z,7.62
2018-11-05T15:21:15.835Z,8.40
2018-11-05T15:23:46.242Z,8.93
2018-11-05T15:26:15.426Z,8.03
2018-11-05T15:28:45.035Z,8.35
2018-11-05T15:31:15.506Z,10.35
2018-11-05T15:33:45.606Z,9.00
2018-11-05T15:36:14.619Z,10.20
2018-11-05T15:38:43.787Z,8.93
2018-11-05T15:41:12.934Z,13.50
2018-11-05T15:43:43.746Z,10.63
2018-11-05T15:46:13.798Z,8.75
2018-11-05T15:48:43.363Z,8.10
2018-11-05T15:51:12.603Z,9.75
2018-11-05T15:53:42.473Z,7.58
2018-11-05T15:56:12.244Z,9.05
2018-11-05T15:58:41.346Z,9.35
2018-11-05T16:01:10.421Z,12.85
2018-11-05T16:03:39.518Z,12.13
2018-11-05T16:06:09.707Z,10.55
2018-11-05T16:08:40.390Z,11.48
2018-11-05T16:11:09.478Z,8.48
2018-11-05T16:13:39.342Z,10.93
2018-11-05T16:16:08.566Z,10.35
2018-11-05T16:18:38.283Z,9.30
2018-11-05T16:21:07.943Z,9.43
2018-11-05T16:23:37.670Z,10.63
2018-11-05T16:26:06.946Z,10.93
2018-11-05T16:28:36.265Z,10.60
2018-11-05T16:31:06.402Z,11.18
2018-11-05T16:33:36.243Z,10.58
2018-11-05T16:36:05.838Z,9.20
2018-11-05T16:38:35.042Z,10.10
2018-11-05T16:41:04.090Z,10.03
2018-11-05T16:43:34.130Z,10.78
2018-11-05T16:46:03.203Z,13.72
2018-11-05T16:48:33.030Z,12.43
2018-11-05T16:51:02.165Z,10.80
2018-11-05T16:53:32.312Z,12.55
2018-11-05T16:56:02.257Z,13.30
2018-11-05T16:58:31.467Z,11.53
2018-11-05T17:01:00.996Z,10.50
2018-11-05T17:03:30.885Z,11.45
2018-11-05T17:06:00.050Z,18.37
2018-11-05T17:08:29.987Z,13.80
2018-11-05T17:10:59.261Z,13.18
2018-11-05T17:13:29.084Z,13.03
2018-11-05T17:15:59.093Z,10.32
2018-11-05T17:18:28.183Z,13.30
2018-11-05T17:20:57.454Z,13.88
2018-11-05T17:23:28.402Z,10.80
2018-11-05T17:25:57.520Z,10.55
2018-11-05T17:28:26.627Z,10.95
2018-11-05T17:30:56.883Z,11.90
2018-11-05T17:33:26.543Z,13.62
2018-11-05T17:35:56.316Z,12.75
2018-11-05T17:38:25.644Z,11.63
2018-11-05T17:40:55.710Z,12.90
2018-11-05T17:43:25.669Z,12.55
2018-11-05T17:45:54.866Z,15.18
2018-11-05T17:48:23.974Z,10.93
2018-11-05T17:50:54.089Z,14.40
2018-11-05T17:53:24.380Z,12.75
2018-11-05T17:55:54.577Z,15.85
2018-11-05T17:58:25.314Z,20.17
2018-11-05T18:00:55.976Z,13.83
2018-11-05T18:03:25.270Z,13.00
2018-11-05T18:05:54.358Z,12.40
2018-11-05T18:08:24.505Z,10.50
2018-11-05T18:10:53.578Z,10.55
2018-11-05T18:13:22.675Z,11.10
2018-11-05T18:15:51.775Z,15.93
2018-11-05T18:18:20.869Z,9.78
2018-11-05T18:20:50.201Z,13.95
2018-11-05T18:23:20.055Z,13.38
2018-11-05T18:25:51.626Z,14.58
2018-11-05T18:28:20.744Z,14.30
2018-11-05T18:30:51.545Z,11.53
2018-11-05T18:33:21.870Z,16.37
2018-11-05T18:35:51.495Z,11.90
2018-11-05T18:38:21.322Z,13.93
2018-11-05T18:40:51.046Z,12.15
2018-11-05T18:43:20.955Z,12.20
2018-11-05T18:45:50.299Z,16.45
2018-11-05T18:48:20.153Z,11.88
2018-11-05T18:50:49.730Z,10.98
2018-11-05T18:53:19.234Z,35.95
2018-11-05T18:55:48.602Z,28.87
2018-11-05T18:58:19.682Z,30.60
2018-11-05T19:00:48.976Z,23.60
2018-11-05T19:03:18.163Z,25.25
2018-11-05T19:05:47.301Z,24.37
2018-11-05T19:08:16.959Z,29.95
2018-11-05T19:10:47.011Z,23.80
2018-11-05T19:13:16.869Z,25.97
2018-11-05T19:15:46.786Z,27.45
2018-11-05T19:18:15.954Z,36.90
2018-11-05T19:20:45.142Z,23.40
2018-11-05T19:23:15.064Z,28.47
2018-11-05T19:25:43.981Z,25.27
2018-11-05T19:28:13.978Z,25.37
2018-11-05T19:30:44.157Z,27.15
2018-11-05T19:33:14.708Z,24.00
2018-11-05T19:35:45.237Z,28.15
2018-11-05T19:38:14.737Z,22.90
2018-11-05T19:40:45.237Z,26.12
2018-11-05T19:43:14.917Z,27.62
2018-11-05T19:45:45.183Z,24.27
2018-11-05T19:48:14.285Z,23.92
2018-11-05T19:50:44.613Z,34.33
2018-11-05T19:53:14.404Z,28.65
2018-11-05T19:55:43.837Z,32.15
2018-11-05T19:58:13.525Z,29.10
2018-11-05T20:00:43.467Z,25.95
2018-11-05T20:03:12.512Z,32.40
2018-11-05T20:05:41.685Z,24.52
2018-11-05T20:08:12.256Z,26.33
2018-11-05T20:10:42.312Z,24.02
2018-11-05T20:13:12.364Z,25.37
2018-11-05T20:15:41.541Z,26.85
2018-11-05T20:18:10.832Z,29.00
2018-11-05T20:20:40.745Z,22.37
2018-11-05T20:23:10.360Z,32.05
2018-11-05T20:25:39.593Z,29.10
2018-11-05T20:28:09.336Z,25.20
2018-11-05T20:30:39.107Z,26.25
2018-11-05T20:33:09.459Z,25.97
2018-11-05T20:35:39.463Z,24.45
2018-11-05T20:38:08.617Z,25.68
2018-11-05T20:40:39.033Z,22.32
2018-11-05T20:43:08.141Z,23.67
2018-11-05T20:45:38.054Z,24.52
2018-11-05T20:48:07.217Z,21.40
2018-11-05T20:50:36.403Z,25.70
2018-11-05T20:53:06.473Z,22.62
2018-11-05T20:55:35.574Z,23.22
2018-11-05T20:58:05.323Z,23.15
2018-11-05T21:00:34.895Z,19.25
2018-11-05T21:03:04.011Z,24.10
2018-11-05T21:05:33.344Z,19.12
2018-11-05T21:08:03.910Z,18.55
2018-11-05T21:10:33.022Z,25.32
2018-11-05T21:13:02.126Z,19.57
2018-11-05T21:15:31.878Z,20.50
2018-11-05T21:18:02.161Z,18.80
2018-11-05T21:20:31.970Z,18.60
2018-11-05T21:23:02.140Z,20.05
2018-11-05T21:25:31.293Z,19.50
2018-11-05T21:28:01.238Z,17.65
2018-11-05T21:30:31.542Z,17.17
2018-11-05T21:33:02.234Z,19.65
2018-11-05T21:35:31.859Z,16.25
2018-11-05T21:38:01.052Z,18.60
2018-11-05T21:40:30.928Z,15.58
2018-11-05T21:43:00.222Z,18.52
2018-11-05T21:45:30.115Z,16.93
2018-11-05T21:47:59.226Z,18.17
2018-11-05T21:50:29.275Z,15.72
2018-11-05T21:52:59.702Z,19.30
2018-11-05T21:55:30.538Z,17.05
2018-11-05T21:58:00.558Z,15.88
2018-11-05T22:00:30.063Z,17.80
2018-11-05T22:03:00.836Z,15.60
2018-11-05T22:05:31.303Z,20.55
2018-11-05T22:08:00.430Z,17.70
2018-11-05T22:10:31.429Z,15.30
2018-11-05T22:13:00.774Z,15.80
2018-11-05T22:15:34.802Z,14.68
2018-11-05T22:18:04.825Z,15.00
2018-11-05T22:20:34.028Z,15.03
2018-11-05T22:23:04.286Z,15.70
2018-11-05T22:25:33.417Z,15.10
2018-11-05T22:28:02.642Z,16.07
2018-11-05T22:30:34.025Z,18.15
2018-11-05T22:33:03.953Z,14.60
2018-11-05T22:35:34.119Z,13.38
2018-11-05T22:38:03.347Z,14.58
2018-11-05T22:40:33.290Z,13.72
2018-11-05T22:43:02.334Z,16.30
2018-11-05T22:45:32.690Z,14.80
2018-11-05T22:48:02.819Z,19.12
2018-11-05T22:50:31.987Z,14.07
2018-11-05T22:53:02.134Z,15.05
2018-11-05T22:55:31.898Z,15.95
2018-11-05T22:58:02.221Z,13.00
2018-11-05T23:00:36.693Z,15.58
2018-11-05T23:03:11.303Z,15.35
2018-11-05T23:05:41.525Z,15.83
2018-11-05T23:08:11.965Z,13.22
2018-11-05T23:10:42.506Z,14.55
2018-11-05T23:13:11.746Z,16.17
2018-11-05T23:15:41.530Z,13.75
2018-11-05T23:18:10.934Z,13.35
2018-11-05T23:20:40.010Z,12.70
2018-11-05T23:23:09.613Z,14.87
2018-11-05T23:25:38.692Z,14.15
2018-11-05T23:28:08.514Z,12.85
2018-11-05T23:30:38.639Z,12.82
2018-11-05T23:33:09.149Z,13.53
2018-11-05T23:35:39.297Z,13.50
2018-11-05T23:38:08.418Z,12.53
2018-11-05T23:40:38.471Z,12.65
2018-11-05T23:43:08.934Z,12.60
2018-11-05T23:45:39.037Z,10.78
2018-11-05T23:48:08.203Z,13.83
2018-11-05T23:50:37.893Z,14.40
2018-11-05T23:53:07.892Z,10.85
2018-11-05T23:55:37.874Z,12.30
2018-11-05T23:58:07.853Z,11.55
